sensor_id;sensor_type;location;lat;lon;timestamp;P1;P2;P0
70915;PMS5003;58557;50.982;-3.222;2023-04-24T00:01:24;32;22;
70915;PMS5003;58557;50.982;-3.222;2023-04-24T00:03:49;26;23;
70915;PMS5003;58557;50.982;-3.222;2023-04-24T00:06:15;28;22;
70915;PMS5003;58557;50.982;-3.222;2023-04-24T00:08:40;22;20;
70915;PMS5003;58557;50.982;-3.222;2023-04-24T00:11:05;27;22;
70915;PMS5003;58557;50.982;-3.222;2023-04-24T00:13:30;25;21;
70915;PMS5003;58557;50.982;-3.222;2023-04-24T00:15:56;26;22;
70915;PMS5003;58557;50.982;-3.222;2023-04-24T00:18:22;21;19;
70915;PMS5003;58557;50.982;-3.222;2023-04-24T00:20:47;32;26;
70915;PMS5003;58557;50.982;-3.222;2023-04-24T00:23:12;26;21;
70915;PMS5003;58557;50.982;-3.222;2023-04-24T00:25:38;23;23;
70915;PMS5003;58557;50.982;-3.222;2023-04-24T00:28:03;32;28;
70915;PMS5003;58557;50.982;-3.222;2023-04-24T00:30:29;26;21;
70915;PMS5003;58557;50.982;-3.222;2023-04-24T00:32:54;28;26;
70915;PMS5003;58557;50.982;-3.222;2023-04-24T00:35:19;33;29;
70915;PMS5003;58557;50.982;-3.222;2023-04-24T00:37:45;34;32;
70915;PMS5003;58557;50.982;-3.222;2023-04-24T00:40:10;21;20;
70915;PMS5003;58557;50.982;-3.222;2023-04-24T00:42:35;35;29;
70915;PMS5003;58557;50.982;-3.222;2023-04-24T00:45:01;34;27;
70915;PMS5003;58557;50.982;-3.222;2023-04-24T00:47:26;27;22;
70915;PMS5003;58557;50.982;-3.222;2023-04-24T00:49:51;31;27;
70915;PMS5003;58557;50.982;-3.222;2023-04-24T00:52:16;22;22;
70915;PMS5003;58557;50.982;-3.222;2023-04-24T00:54:41;41;31;
70915;PMS5003;58557;50.982;-3.222;2023-04-24T00:57:07;34;31;
70915;PMS5003;58557;50.982;-3.222;2023-04-24T00:59:32;40;35;
70915;PMS5003;58557;50.982;-3.222;2023-04-24T01:01:58;35;33;
70915;PMS5003;58557;50.982;-3.222;2023-04-24T01:04:24;58;49;
70915;PMS5003;58557;50.982;-3.222;2023-04-24T01:06:49;47;38;
70915;PMS5003;58557;50.982;-3.222;2023-04-24T01:09:14;28;22;
70915;PMS5003;58557;50.982;-3.222;2023-04-24T01:11:40;34;28;
70915;PMS5003;58557;50.982;-3.222;2023-04-24T01:14:05;32;31;
70915;PMS5003;58557;50.982;-3.222;2023-04-24T01:16:30;39;36;
70915;PMS5003;58557;50.982;-3.222;2023-04-24T01:18:55;38;33;
70915;PMS5003;58557;50.982;-3.222;2023-04-24T01:21:21;39;37;
70915;PMS5003;58557;50.982;-3.222;2023-04-24T01:23:46;34;32;
70915;PMS5003;58557;50.982;-3.222;2023-04-24T01:26:12;29;25;
70915;PMS5003;58557;50.982;-3.222;2023-04-24T01:28:37;37;26;
70915;PMS5003;58557;50.982;-3.222;2023-04-24T01:31:03;36;36;
70915;PMS5003;58557;50.982;-3.222;2023-04-24T01:33:28;31;31;
70915;PMS5003;58557;50.982;-3.222;2023-04-24T01:35:53;36;34;
70915;PMS5003;58557;50.982;-3.222;2023-04-24T01:38:18;35;33;
70915;PMS5003;58557;50.982;-3.222;2023-04-24T01:40:44;34;33;
70915;PMS5003;58557;50.982;-3.222;2023-04-24T01:43:08;40;33;
70915;PMS5003;58557;50.982;-3.222;2023-04-24T01:45:34;38;33;
70915;PMS5003;58557;50.982;-3.222;2023-04-24T01:47:59;38;33;
70915;PMS5003;58557;50.982;-3.222;2023-04-24T01:50:24;33;26;
70915;PMS5003;58557;50.982;-3.222;2023-04-24T01:52:50;32;28;
70915;PMS5003;58557;50.982;-3.222;2023-04-24T01:55:17;31;31;
70915;PMS5003;58557;50.982;-3.222;2023-04-24T01:57:40;38;32;
70915;PMS5003;58557;50.982;-3.222;2023-04-24T02:00:06;30;28;
70915;PMS5003;58557;50.982;-3.222;2023-04-24T02:02:31;27;25;
70915;PMS5003;58557;50.982;-3.222;2023-04-24T02:04:57;32;31;
70915;PMS5003;58557;50.982;-3.222;2023-04-24T02:07:23;39;32;
70915;PMS5003;58557;50.982;-3.222;2023-04-24T02:09:48;34;31;
70915;PMS5003;58557;50.982;-3.222;2023-04-24T02:12:13;39;32;
70915;PMS5003;58557;50.982;-3.222;2023-04-24T02:14:39;37;32;
70915;PMS5003;58557;50.982;-3.222;2023-04-24T02:17:05;31;28;
70915;PMS5003;58557;50.982;-3.222;2023-04-24T02:19:30;25;22;
70915;PMS5003;58557;50.982;-3.222;2023-04-24T02:21:55;34;31;
70915;PMS5003;58557;50.982;-3.222;2023-04-24T02:24:20;28;23;
70915;PMS5003;58557;50.982;-3.222;2023-04-24T02:26:45;29;29;
70915;PMS5003;58557;50.982;-3.222;2023-04-24T02:29:10;32;28;
70915;PMS5003;58557;50.982;-3.222;2023-04-24T02:31:36;33;27;
70915;PMS5003;58557;50.982;-3.222;2023-04-24T02:34:02;26;26;
70915;PMS5003;58557;50.982;-3.222;2023-04-24T02:36:27;29;26;
70915;PMS5003;58557;50.982;-3.222;2023-04-24T02:38:52;31;28;
70915;PMS5003;58557;50.982;-3.222;2023-04-24T02:41:18;29;24;
70915;PMS5003;58557;50.982;-3.222;2023-04-24T02:43:43;27;24;
70915;PMS5003;58557;50.982;-3.222;2023-04-24T02:46:08;29;23;
70915;PMS5003;58557;50.982;-3.222;2023-04-24T02:48:33;32;23;
70915;PMS5003;58557;50.982;-3.222;2023-04-24T02:50:59;29;23;
70915;PMS5003;58557;50.982;-3.222;2023-04-24T02:53:24;36;35;
70915;PMS5003;58557;50.982;-3.222;2023-04-24T02:55:49;27;26;
70915;PMS5003;58557;50.982;-3.222;2023-04-24T02:58:15;36;30;
70915;PMS5003;58557;50.982;-3.222;2023-04-24T03:00:40;28;28;
70915;PMS5003;58557;50.982;-3.222;2023-04-24T03:03:05;32;30;
70915;PMS5003;58557;50.982;-3.222;2023-04-24T03:05:31;34;34;
70915;PMS5003;58557;50.982;-3.222;2023-04-24T03:07:56;33;32;
70915;PMS5003;58557;50.982;-3.222;2023-04-24T03:10:21;26;26;
70915;PMS5003;58557;50.982;-3.222;2023-04-24T03:12:47;30;27;
70915;PMS5003;58557;50.982;-3.222;2023-04-24T03:15:12;32;26;
70915;PMS5003;58557;50.982;-3.222;2023-04-24T03:17:37;29;23;
70915;PMS5003;58557;50.982;-3.222;2023-04-24T03:20:03;33;29;
70915;PMS5003;58557;50.982;-3.222;2023-04-24T03:22:29;39;35;
70915;PMS5003;58557;50.982;-3.222;2023-04-24T03:24:54;33;28;
70915;PMS5003;58557;50.982;-3.222;2023-04-24T03:27:19;37;31;
70915;PMS5003;58557;50.982;-3.222;2023-04-24T03:29:45;27;26;
70915;PMS5003;58557;50.982;-3.222;2023-04-24T03:32:10;28;25;
70915;PMS5003;58557;50.982;-3.222;2023-04-24T03:34:35;40;33;
70915;PMS5003;58557;50.982;-3.222;2023-04-24T03:37:01;31;23;
70915;PMS5003;58557;50.982;-3.222;2023-04-24T03:39:27;33;29;
70915;PMS5003;58557;50.982;-3.222;2023-04-24T03:41:52;36;31;
70915;PMS5003;58557;50.982;-3.222;2023-04-24T03:44:17;33;30;
70915;PMS5003;58557;50.982;-3.222;2023-04-24T03:46:42;28;27;
70915;PMS5003;58557;50.982;-3.222;2023-04-24T03:49:08;27;26;
70915;PMS5003;58557;50.982;-3.222;2023-04-24T03:51:34;26;26;
70915;PMS5003;58557;50.982;-3.222;2023-04-24T03:53:59;29;26;
70915;PMS5003;58557;50.982;-3.222;2023-04-24T03:56:25;35;32;
70915;PMS5003;58557;50.982;-3.222;2023-04-24T03:58:50;35;32;
70915;PMS5003;58557;50.982;-3.222;2023-04-24T04:01:15;29;26;
70915;PMS5003;58557;50.982;-3.222;2023-04-24T04:03:41;36;30;
70915;PMS5003;58557;50.982;-3.222;2023-04-24T04:06:06;29;26;
70915;PMS5003;58557;50.982;-3.222;2023-04-24T04:08:31;33;26;
70915;PMS5003;58557;50.982;-3.222;2023-04-24T04:10:57;36;30;
70915;PMS5003;58557;50.982;-3.222;2023-04-24T04:13:22;34;28;
70915;PMS5003;58557;50.982;-3.222;2023-04-24T04:15:47;30;29;
70915;PMS5003;58557;50.982;-3.222;2023-04-24T04:18:13;27;27;
70915;PMS5003;58557;50.982;-3.222;2023-04-24T04:20:39;37;29;
70915;PMS5003;58557;50.982;-3.222;2023-04-24T04:23:04;30;29;
70915;PMS5003;58557;50.982;-3.222;2023-04-24T04:25:30;29;24;
70915;PMS5003;58557;50.982;-3.222;2023-04-24T04:27:56;28;27;
70915;PMS5003;58557;50.982;-3.222;2023-04-24T04:30:21;27;23;
70915;PMS5003;58557;50.982;-3.222;2023-04-24T04:32:46;33;29;
70915;PMS5003;58557;50.982;-3.222;2023-04-24T04:35:12;32;29;
70915;PMS5003;58557;50.982;-3.222;2023-04-24T04:37:37;35;32;
70915;PMS5003;58557;50.982;-3.222;2023-04-24T04:40:03;36;34;
70915;PMS5003;58557;50.982;-3.222;2023-04-24T04:42:29;34;33;
70915;PMS5003;58557;50.982;-3.222;2023-04-24T04:44:54;33;28;
70915;PMS5003;58557;50.982;-3.222;2023-04-24T04:47:20;33;33;
70915;PMS5003;58557;50.982;-3.222;2023-04-24T04:49:45;40;34;
70915;PMS5003;58557;50.982;-3.222;2023-04-24T04:52:10;40;33;
70915;PMS5003;58557;50.982;-3.222;2023-04-24T04:54:36;44;40;
70915;PMS5003;58557;50.982;-3.222;2023-04-24T04:57:01;41;35;
70915;PMS5003;58557;50.982;-3.222;2023-04-24T04:59:26;41;33;
70915;PMS5003;58557;50.982;-3.222;2023-04-24T05:01:52;38;35;
70915;PMS5003;58557;50.982;-3.222;2023-04-24T05:04:17;38;34;
70915;PMS5003;58557;50.982;-3.222;2023-04-24T05:06:42;36;34;
70915;PMS5003;58557;50.982;-3.222;2023-04-24T05:09:08;31;31;
70915;PMS5003;58557;50.982;-3.222;2023-04-24T05:11:33;41;36;
70915;PMS5003;58557;50.982;-3.222;2023-04-24T05:13:58;32;32;
70915;PMS5003;58557;50.982;-3.222;2023-04-24T05:16:24;31;28;
70915;PMS5003;58557;50.982;-3.222;2023-04-24T05:18:50;35;30;
70915;PMS5003;58557;50.982;-3.222;2023-04-24T05:21:16;30;29;
70915;PMS5003;58557;50.982;-3.222;2023-04-24T05:23:41;24;24;
70915;PMS5003;58557;50.982;-3.222;2023-04-24T05:26:06;29;25;
70915;PMS5003;58557;50.982;-3.222;2023-04-24T05:28:32;36;32;
70915;PMS5003;58557;50.982;-3.222;2023-04-24T05:30:57;22;19;
70915;PMS5003;58557;50.982;-3.222;2023-04-24T05:33:22;28;25;
70915;PMS5003;58557;50.982;-3.222;2023-04-24T05:35:47;24;23;
70915;PMS5003;58557;50.982;-3.222;2023-04-24T05:38:13;28;25;
70915;PMS5003;58557;50.982;-3.222;2023-04-24T05:40:39;28;26;
70915;PMS5003;58557;50.982;-3.222;2023-04-24T05:43:04;21;21;
70915;PMS5003;58557;50.982;-3.222;2023-04-24T05:45:30;26;23;
70915;PMS5003;58557;50.982;-3.222;2023-04-24T05:47:56;24;19;
70915;PMS5003;58557;50.982;-3.222;2023-04-24T05:50:21;30;23;
70915;PMS5003;58557;50.982;-3.222;2023-04-24T05:52:46;31;26;
70915;PMS5003;58557;50.982;-3.222;2023-04-24T05:55:11;29;25;
70915;PMS5003;58557;50.982;-3.222;2023-04-24T05:57:37;21;19;
70915;PMS5003;58557;50.982;-3.222;2023-04-24T06:00:03;27;23;
70915;PMS5003;58557;50.982;-3.222;2023-04-24T06:02:28;30;27;
70915;PMS5003;58557;50.982;-3.222;2023-04-24T06:04:54;26;26;
70915;PMS5003;58557;50.982;-3.222;2023-04-24T06:07:19;24;21;
70915;PMS5003;58557;50.982;-3.222;2023-04-24T06:09:45;24;20;
70915;PMS5003;58557;50.982;-3.222;2023-04-24T06:12:10;24;20;
70915;PMS5003;58557;50.982;-3.222;2023-04-24T06:14:35;31;28;
70915;PMS5003;58557;50.982;-3.222;2023-04-24T06:17:01;23;20;
70915;PMS5003;58557;50.982;-3.222;2023-04-24T06:19:25;25;22;
70915;PMS5003;58557;50.982;-3.222;2023-04-24T06:21:50;26;25;
70915;PMS5003;58557;50.982;-3.222;2023-04-24T06:24:16;23;23;
70915;PMS5003;58557;50.982;-3.222;2023-04-24T06:26:41;23;21;
70915;PMS5003;58557;50.982;-3.222;2023-04-24T06:29:06;20;19;
70915;PMS5003;58557;50.982;-3.222;2023-04-24T06:31:32;22;19;
70915;PMS5003;58557;50.982;-3.222;2023-04-24T06:33:58;20;17;
70915;PMS5003;58557;50.982;-3.222;2023-04-24T06:36:23;27;24;
70915;PMS5003;58557;50.982;-3.222;2023-04-24T06:38:48;24;22;
70915;PMS5003;58557;50.982;-3.222;2023-04-24T06:41:13;23;20;
70915;PMS5003;58557;50.982;-3.222;2023-04-24T06:43:38;24;20;
70915;PMS5003;58557;50.982;-3.222;2023-04-24T06:46:04;24;20;
70915;PMS5003;58557;50.982;-3.222;2023-04-24T06:48:29;25;24;
70915;PMS5003;58557;50.982;-3.222;2023-04-24T06:50:54;22;22;
70915;PMS5003;58557;50.982;-3.222;2023-04-24T06:53:19;27;26;
70915;PMS5003;58557;50.982;-3.222;2023-04-24T06:55:44;20;18;
70915;PMS5003;58557;50.982;-3.222;2023-04-24T06:58:10;27;20;
70915;PMS5003;58557;50.982;-3.222;2023-04-24T07:00:35;22;21;
70915;PMS5003;58557;50.982;-3.222;2023-04-24T07:03:00;21;18;
70915;PMS5003;58557;50.982;-3.222;2023-04-24T07:05:25;20;18;
70915;PMS5003;58557;50.982;-3.222;2023-04-24T07:07:50;17;15;
70915;PMS5003;58557;50.982;-3.222;2023-04-24T07:10:16;20;15;
70915;PMS5003;58557;50.982;-3.222;2023-04-24T07:12:41;18;17;
70915;PMS5003;58557;50.982;-3.222;2023-04-24T07:15:08;17;15;
70915;PMS5003;58557;50.982;-3.222;2023-04-24T07:17:33;15;14;
70915;PMS5003;58557;50.982;-3.222;2023-04-24T07:19:59;18;17;
70915;PMS5003;58557;50.982;-3.222;2023-04-24T07:22:24;19;15;
70915;PMS5003;58557;50.982;-3.222;2023-04-24T07:24:50;14;14;
70915;PMS5003;58557;50.982;-3.222;2023-04-24T07:27:15;15;14;
70915;PMS5003;58557;50.982;-3.222;2023-04-24T07:29:41;20;19;
70915;PMS5003;58557;50.982;-3.222;2023-04-24T07:32:06;19;17;
70915;PMS5003;58557;50.982;-3.222;2023-04-24T07:34:31;17;17;
70915;PMS5003;58557;50.982;-3.222;2023-04-24T07:36:57;15;15;
70915;PMS5003;58557;50.982;-3.222;2023-04-24T07:39:23;14;14;
70915;PMS5003;58557;50.982;-3.222;2023-04-24T07:41:48;17;16;
70915;PMS5003;58557;50.982;-3.222;2023-04-24T07:44:14;17;17;
70915;PMS5003;58557;50.982;-3.222;2023-04-24T07:46:39;15;15;
70915;PMS5003;58557;50.982;-3.222;2023-04-24T07:49:04;15;13;
70915;PMS5003;58557;50.982;-3.222;2023-04-24T07:51:29;19;14;
70915;PMS5003;58557;50.982;-3.222;2023-04-24T07:53:55;16;14;
70915;PMS5003;58557;50.982;-3.222;2023-04-24T07:56:21;16;15;
70915;PMS5003;58557;50.982;-3.222;2023-04-24T07:58:46;14;14;
70915;PMS5003;58557;50.982;-3.222;2023-04-24T08:01:12;18;14;
70915;PMS5003;58557;50.982;-3.222;2023-04-24T08:03:37;19;15;
70915;PMS5003;58557;50.982;-3.222;2023-04-24T08:06:03;21;17;
70915;PMS5003;58557;50.982;-3.222;2023-04-24T08:08:28;18;15;
70915;PMS5003;58557;50.982;-3.222;2023-04-24T08:10:54;15;13;
70915;PMS5003;58557;50.982;-3.222;2023-04-24T08:13:19;16;16;
70915;PMS5003;58557;50.982;-3.222;2023-04-24T08:15:44;22;22;
70915;PMS5003;58557;50.982;-3.222;2023-04-24T08:18:09;16;15;
70915;PMS5003;58557;50.982;-3.222;2023-04-24T08:20:35;19;16;
70915;PMS5003;58557;50.982;-3.222;2023-04-24T08:23:00;17;15;
70915;PMS5003;58557;50.982;-3.222;2023-04-24T08:25:26;19;16;
70915;PMS5003;58557;50.982;-3.222;2023-04-24T08:27:51;14;14;
70915;PMS5003;58557;50.982;-3.222;2023-04-24T08:30:17;15;13;
70915;PMS5003;58557;50.982;-3.222;2023-04-24T08:32:43;26;22;
70915;PMS5003;58557;50.982;-3.222;2023-04-24T08:35:09;17;16;
70915;PMS5003;58557;50.982;-3.222;2023-04-24T08:37:34;24;23;
70915;PMS5003;58557;50.982;-3.222;2023-04-24T08:39:59;20;20;
70915;PMS5003;58557;50.982;-3.222;2023-04-24T08:42:24;18;15;
70915;PMS5003;58557;50.982;-3.222;2023-04-24T08:44:50;23;21;
70915;PMS5003;58557;50.982;-3.222;2023-04-24T08:47:15;20;20;
70915;PMS5003;58557;50.982;-3.222;2023-04-24T08:49:40;18;13;
70915;PMS5003;58557;50.982;-3.222;2023-04-24T08:52:05;23;19;
70915;PMS5003;58557;50.982;-3.222;2023-04-24T08:54:31;12;12;
70915;PMS5003;58557;50.982;-3.222;2023-04-24T08:56:57;16;15;
70915;PMS5003;58557;50.982;-3.222;2023-04-24T08:59:22;26;24;
70915;PMS5003;58557;50.982;-3.222;2023-04-24T09:01:48;14;11;
70915;PMS5003;58557;50.982;-3.222;2023-04-24T09:04:14;11;11;
70915;PMS5003;58557;50.982;-3.222;2023-04-24T09:06:39;23;19;
70915;PMS5003;58557;50.982;-3.222;2023-04-24T09:09:04;21;18;
70915;PMS5003;58557;50.982;-3.222;2023-04-24T09:11:30;15;14;
70915;PMS5003;58557;50.982;-3.222;2023-04-24T09:13:55;14;13;
70915;PMS5003;58557;50.982;-3.222;2023-04-24T09:16:21;17;16;
70915;PMS5003;58557;50.982;-3.222;2023-04-24T09:18:46;14;14;
70915;PMS5003;58557;50.982;-3.222;2023-04-24T09:21:11;13;12;
70915;PMS5003;58557;50.982;-3.222;2023-04-24T09:23:37;16;14;
70915;PMS5003;58557;50.982;-3.222;2023-04-24T09:26:03;20;18;
70915;PMS5003;58557;50.982;-3.222;2023-04-24T09:28:29;22;19;
70915;PMS5003;58557;50.982;-3.222;2023-04-24T09:33:18;17;14;
70915;PMS5003;58557;50.982;-3.222;2023-04-24T09:35:48;13;13;
70915;PMS5003;58557;50.982;-3.222;2023-04-24T09:38:09;14;13;
70915;PMS5003;58557;50.982;-3.222;2023-04-24T09:40:35;11;11;
70915;PMS5003;58557;50.982;-3.222;2023-04-24T09:43:00;13;12;
70915;PMS5003;58557;50.982;-3.222;2023-04-24T09:45:27;18;14;
70915;PMS5003;58557;50.982;-3.222;2023-04-24T09:47:51;16;13;
70915;PMS5003;58557;50.982;-3.222;2023-04-24T09:50:17;23;18;
70915;PMS5003;58557;50.982;-3.222;2023-04-24T09:52:43;21;17;
70915;PMS5003;58557;50.982;-3.222;2023-04-24T09:55:13;27;26;
70915;PMS5003;58557;50.982;-3.222;2023-04-24T09:57:33;18;15;
70915;PMS5003;58557;50.982;-3.222;2023-04-24T09:59:59;14;12;
70915;PMS5003;58557;50.982;-3.222;2023-04-24T10:02:25;17;16;
70915;PMS5003;58557;50.982;-3.222;2023-04-24T10:04:54;14;14;
70915;PMS5003;58557;50.982;-3.222;2023-04-24T10:07:15;16;13;
70915;PMS5003;58557;50.982;-3.222;2023-04-24T10:09:41;10;10;
70915;PMS5003;58557;50.982;-3.222;2023-04-24T10:12:07;15;15;
70915;PMS5003;58557;50.982;-3.222;2023-04-24T10:14:32;12;11;
70915;PMS5003;58557;50.982;-3.222;2023-04-24T10:16:58;12;12;
70915;PMS5003;58557;50.982;-3.222;2023-04-24T10:19:24;13;13;
70915;PMS5003;58557;50.982;-3.222;2023-04-24T10:21:48;12;11;
70915;PMS5003;58557;50.982;-3.222;2023-04-24T10:24:15;16;14;
70915;PMS5003;58557;50.982;-3.222;2023-04-24T10:26:40;14;11;
70915;PMS5003;58557;50.982;-3.222;2023-04-24T10:29:06;12;9;
70915;PMS5003;58557;50.982;-3.222;2023-04-24T10:31:31;16;13;
70915;PMS5003;58557;50.982;-3.222;2023-04-24T10:33:57;11;11;
70915;PMS5003;58557;50.982;-3.222;2023-04-24T10:36:22;12;11;
70915;PMS5003;58557;50.982;-3.222;2023-04-24T10:38:47;15;13;
70915;PMS5003;58557;50.982;-3.222;2023-04-24T10:41:13;12;11;
70915;PMS5003;58557;50.982;-3.222;2023-04-24T10:43:39;9;8;
70915;PMS5003;58557;50.982;-3.222;2023-04-24T10:46:05;6;6;
70915;PMS5003;58557;50.982;-3.222;2023-04-24T10:48:31;9;9;
70915;PMS5003;58557;50.982;-3.222;2023-04-24T10:50:56;15;15;
70915;PMS5003;58557;50.982;-3.222;2023-04-24T10:53:24;19;16;
70915;PMS5003;58557;50.982;-3.222;2023-04-24T10:55:47;18;16;
70915;PMS5003;58557;50.982;-3.222;2023-04-24T10:58:12;24;24;
70915;PMS5003;58557;50.982;-3.222;2023-04-24T11:00:38;24;21;
70915;PMS5003;58557;50.982;-3.222;2023-04-24T11:03:03;20;17;
70915;PMS5003;58557;50.982;-3.222;2023-04-24T11:12:44;12;11;
70915;PMS5003;58557;50.982;-3.222;2023-04-24T11:15:10;12;12;
70915;PMS5003;58557;50.982;-3.222;2023-04-24T11:17:36;12;10;
70915;PMS5003;58557;50.982;-3.222;2023-04-24T11:20:01;14;11;
70915;PMS5003;58557;50.982;-3.222;2023-04-24T11:22:26;23;22;
70915;PMS5003;58557;50.982;-3.222;2023-04-24T11:24:53;42;42;
70915;PMS5003;58557;50.982;-3.222;2023-04-24T11:27:17;30;30;
70915;PMS5003;58557;50.982;-3.222;2023-04-24T11:29:43;25;23;
70915;PMS5003;58557;50.982;-3.222;2023-04-24T11:32:16;17;15;
70915;PMS5003;58557;50.982;-3.222;2023-04-24T11:34:33;15;10;
70915;PMS5003;58557;50.982;-3.222;2023-04-24T11:36:57;10;9;
70915;PMS5003;58557;50.982;-3.222;2023-04-24T11:39:22;10;10;
70915;PMS5003;58557;50.982;-3.222;2023-04-24T11:41:48;11;11;
70915;PMS5003;58557;50.982;-3.222;2023-04-24T11:44:14;13;12;
70915;PMS5003;58557;50.982;-3.222;2023-04-24T11:46:40;11;11;
70915;PMS5003;58557;50.982;-3.222;2023-04-24T11:49:06;10;10;
70915;PMS5003;58557;50.982;-3.222;2023-04-24T11:51:31;15;12;
70915;PMS5003;58557;50.982;-3.222;2023-04-24T11:53:56;13;9;
70915;PMS5003;58557;50.982;-3.222;2023-04-24T11:56:21;12;12;
70915;PMS5003;58557;50.982;-3.222;2023-04-24T11:58:47;11;10;
70915;PMS5003;58557;50.982;-3.222;2023-04-24T12:01:13;12;11;
70915;PMS5003;58557;50.982;-3.222;2023-04-24T12:03:38;8;8;
70915;PMS5003;58557;50.982;-3.222;2023-04-24T12:06:04;15;14;
70915;PMS5003;58557;50.982;-3.222;2023-04-24T12:08:29;17;17;
70915;PMS5003;58557;50.982;-3.222;2023-04-24T12:10:55;10;8;
70915;PMS5003;58557;50.982;-3.222;2023-04-24T12:13:20;12;12;
70915;PMS5003;58557;50.982;-3.222;2023-04-24T12:15:46;11;11;
70915;PMS5003;58557;50.982;-3.222;2023-04-24T12:18:11;10;10;
70915;PMS5003;58557;50.982;-3.222;2023-04-24T12:20:36;11;9;
70915;PMS5003;58557;50.982;-3.222;2023-04-24T12:23:02;12;11;
70915;PMS5003;58557;50.982;-3.222;2023-04-24T12:25:28;16;14;
70915;PMS5003;58557;50.982;-3.222;2023-04-24T12:27:53;10;10;
70915;PMS5003;58557;50.982;-3.222;2023-04-24T12:30:18;12;10;
70915;PMS5003;58557;50.982;-3.222;2023-04-24T12:32:44;11;10;
70915;PMS5003;58557;50.982;-3.222;2023-04-24T12:35:09;12;10;
70915;PMS5003;58557;50.982;-3.222;2023-04-24T12:37:35;13;13;
70915;PMS5003;58557;50.982;-3.222;2023-04-24T12:40:00;17;16;
70915;PMS5003;58557;50.982;-3.222;2023-04-24T12:42:26;14;12;
70915;PMS5003;58557;50.982;-3.222;2023-04-24T12:44:55;17;17;
70915;PMS5003;58557;50.982;-3.222;2023-04-24T12:47:16;12;12;
70915;PMS5003;58557;50.982;-3.222;2023-04-24T12:49:42;15;13;
70915;PMS5003;58557;50.982;-3.222;2023-04-24T12:52:08;18;18;
70915;PMS5003;58557;50.982;-3.222;2023-04-24T12:54:33;12;11;
70915;PMS5003;58557;50.982;-3.222;2023-04-24T12:56:58;15;14;
70915;PMS5003;58557;50.982;-3.222;2023-04-24T12:59:24;18;16;
70915;PMS5003;58557;50.982;-3.222;2023-04-24T13:01:50;6;6;
70915;PMS5003;58557;50.982;-3.222;2023-04-24T13:04:15;7;7;
70915;PMS5003;58557;50.982;-3.222;2023-04-24T13:06:40;14;14;
70915;PMS5003;58557;50.982;-3.222;2023-04-24T13:09:05;12;12;
70915;PMS5003;58557;50.982;-3.222;2023-04-24T13:11:31;15;11;
70915;PMS5003;58557;50.982;-3.222;2023-04-24T13:13:57;15;14;
70915;PMS5003;58557;50.982;-3.222;2023-04-24T13:16:22;12;12;
70915;PMS5003;58557;50.982;-3.222;2023-04-24T13:18:48;17;17;
70915;PMS5003;58557;50.982;-3.222;2023-04-24T13:21:14;12;11;
70915;PMS5003;58557;50.982;-3.222;2023-04-24T13:23:40;12;12;
70915;PMS5003;58557;50.982;-3.222;2023-04-24T13:26:05;9;9;
70915;PMS5003;58557;50.982;-3.222;2023-04-24T13:28:31;11;11;
70915;PMS5003;58557;50.982;-3.222;2023-04-24T13:30:57;9;9;
70915;PMS5003;58557;50.982;-3.222;2023-04-24T13:33:23;8;8;
70915;PMS5003;58557;50.982;-3.222;2023-04-24T13:35:48;11;10;
70915;PMS5003;58557;50.982;-3.222;2023-04-24T13:38:14;12;11;
70915;PMS5003;58557;50.982;-3.222;2023-04-24T13:40:40;9;9;
70915;PMS5003;58557;50.982;-3.222;2023-04-24T13:43:05;9;9;
70915;PMS5003;58557;50.982;-3.222;2023-04-24T13:45:31;9;9;
70915;PMS5003;58557;50.982;-3.222;2023-04-24T13:47:57;10;8;
70915;PMS5003;58557;50.982;-3.222;2023-04-24T13:50:22;15;15;
70915;PMS5003;58557;50.982;-3.222;2023-04-24T13:52:48;7;7;
70915;PMS5003;58557;50.982;-3.222;2023-04-24T13:55:14;12;10;
70915;PMS5003;58557;50.982;-3.222;2023-04-24T13:57:39;8;8;
70915;PMS5003;58557;50.982;-3.222;2023-04-24T14:00:06;9;8;
70915;PMS5003;58557;50.982;-3.222;2023-04-24T14:02:31;8;8;
70915;PMS5003;58557;50.982;-3.222;2023-04-24T14:04:56;9;8;
70915;PMS5003;58557;50.982;-3.222;2023-04-24T14:07:22;11;9;
70915;PMS5003;58557;50.982;-3.222;2023-04-24T14:09:48;7;7;
70915;PMS5003;58557;50.982;-3.222;2023-04-24T14:12:14;7;7;
70915;PMS5003;58557;50.982;-3.222;2023-04-24T14:14:40;7;7;
70915;PMS5003;58557;50.982;-3.222;2023-04-24T14:17:05;14;13;
70915;PMS5003;58557;50.982;-3.222;2023-04-24T14:19:31;21;20;
70915;PMS5003;58557;50.982;-3.222;2023-04-24T14:21:56;13;13;
70915;PMS5003;58557;50.982;-3.222;2023-04-24T14:24:22;13;13;
70915;PMS5003;58557;50.982;-3.222;2023-04-24T14:26:47;14;13;
70915;PMS5003;58557;50.982;-3.222;2023-04-24T14:29:13;11;11;
70915;PMS5003;58557;50.982;-3.222;2023-04-24T14:31:38;17;17;
70915;PMS5003;58557;50.982;-3.222;2023-04-24T14:34:04;14;13;
70915;PMS5003;58557;50.982;-3.222;2023-04-24T14:36:30;15;15;
70915;PMS5003;58557;50.982;-3.222;2023-04-24T14:38:55;17;14;
70915;PMS5003;58557;50.982;-3.222;2023-04-24T14:41:21;16;15;
70915;PMS5003;58557;50.982;-3.222;2023-04-24T14:43:47;15;13;
70915;PMS5003;58557;50.982;-3.222;2023-04-24T14:46:13;15;14;
70915;PMS5003;58557;50.982;-3.222;2023-04-24T14:48:38;13;12;
70915;PMS5003;58557;50.982;-3.222;2023-04-24T14:51:03;19;15;
70915;PMS5003;58557;50.982;-3.222;2023-04-24T14:53:28;13;12;
70915;PMS5003;58557;50.982;-3.222;2023-04-24T14:55:54;13;11;
70915;PMS5003;58557;50.982;-3.222;2023-04-24T14:58:20;13;12;
70915;PMS5003;58557;50.982;-3.222;2023-04-24T15:00:45;9;9;
70915;PMS5003;58557;50.982;-3.222;2023-04-24T15:03:11;9;7;
70915;PMS5003;58557;50.982;-3.222;2023-04-24T15:05:36;7;7;
70915;PMS5003;58557;50.982;-3.222;2023-04-24T15:08:02;9;6;
70915;PMS5003;58557;50.982;-3.222;2023-04-24T15:10:27;15;13;
70915;PMS5003;58557;50.982;-3.222;2023-04-24T15:12:53;14;11;
70915;PMS5003;58557;50.982;-3.222;2023-04-24T15:15:19;13;13;
70915;PMS5003;58557;50.982;-3.222;2023-04-24T15:17:44;11;11;
70915;PMS5003;58557;50.982;-3.222;2023-04-24T15:20:10;10;10;
70915;PMS5003;58557;50.982;-3.222;2023-04-24T15:22:36;15;11;
70915;PMS5003;58557;50.982;-3.222;2023-04-24T15:25:01;13;12;
70915;PMS5003;58557;50.982;-3.222;2023-04-24T15:27:27;15;12;
70915;PMS5003;58557;50.982;-3.222;2023-04-24T15:29:52;14;13;
70915;PMS5003;58557;50.982;-3.222;2023-04-24T15:32:18;18;14;
70915;PMS5003;58557;50.982;-3.222;2023-04-24T15:34:44;13;12;
70915;PMS5003;58557;50.982;-3.222;2023-04-24T15:37:09;14;14;
70915;PMS5003;58557;50.982;-3.222;2023-04-24T15:39:35;15;15;
70915;PMS5003;58557;50.982;-3.222;2023-04-24T15:42:01;13;13;
70915;PMS5003;58557;50.982;-3.222;2023-04-24T15:44:27;13;12;
70915;PMS5003;58557;50.982;-3.222;2023-04-24T15:46:52;14;13;
70915;PMS5003;58557;50.982;-3.222;2023-04-24T15:49:18;13;12;
70915;PMS5003;58557;50.982;-3.222;2023-04-24T15:51:43;15;14;
70915;PMS5003;58557;50.982;-3.222;2023-04-24T15:54:10;18;15;
70915;PMS5003;58557;50.982;-3.222;2023-04-24T15:56:34;22;22;
70915;PMS5003;58557;50.982;-3.222;2023-04-24T15:59:00;21;14;
70915;PMS5003;58557;50.982;-3.222;2023-04-24T16:01:25;20;19;